Terminal Aerodrome Forecast
Issued by NWS

Home | Current Version | Previous Version | Text Only | Print | Product List | Glossary On
Versions: 1 2 3 4 5 6 7 8 9 10 11 12 13 14 15 16 17
000
FTUS42 TJSJ 191300 AAA
TAFISX
TAF AMD
TISX 191340Z 1914/2012 10014KT P6SM VCSH SCT020 SCT040 BKN070
      TEMPO 1914/1916 VRB16G25KT 5SM SHRA BKN022 BKN040
     FM191630 10017KT P6SM SCT028 SCT050 SCT080
     FM192300 09012KT P6SM FEW025 SCT050 SCT070=

USA.gov is the U.S. government's official web portal to all federal, state and local government web resources and services.